createdAt,value
2022-10-02T00:00:54.772Z,0.80
2022-10-02T00:03:25.109Z,0.80
2022-10-02T00:06:00.950Z,0.97
2022-10-02T00:08:31.267Z,0.93
2022-10-02T00:11:02.399Z,1.30
2022-10-02T00:13:42.006Z,0.90
2022-10-02T00:16:21.081Z,0.97
2022-10-02T00:18:49.273Z,1.20
2022-10-02T00:21:34.582Z,1.30
2022-10-02T00:24:02.676Z,1.03
2022-10-02T00:26:34.461Z,1.00
2022-10-02T00:29:09.952Z,1.13
2022-10-02T00:31:46.490Z,0.90
2022-10-02T00:34:27.016Z,1.00
2022-10-02T00:37:06.247Z,1.20
2022-10-02T00:39:39.030Z,1.07
2022-10-02T00:42:22.019Z,1.23
2022-10-02T00:44:54.763Z,1.00
2022-10-02T00:47:21.749Z,1.20
2022-10-02T00:49:55.983Z,1.30
2022-10-02T00:52:26.006Z,0.97
2022-10-02T00:55:11.642Z,1.20
2022-10-02T00:58:17.322Z,1.23
2022-10-02T01:00:49.236Z,0.93
2022-10-02T01:03:18.844Z,1.10
2022-10-02T01:05:45.934Z,1.50
2022-10-02T01:08:14.254Z,1.20
2022-10-02T01:10:41.486Z,1.30
2022-10-02T01:13:08.716Z,1.03
2022-10-02T01:15:38.411Z,1.30
2022-10-02T01:18:05.507Z,1.00
2022-10-02T01:20:36.036Z,1.20
2022-10-02T01:23:26.051Z,1.50
2022-10-02T01:25:53.176Z,1.13
2022-10-02T01:28:20.621Z,1.27
2022-10-02T01:30:49.318Z,1.23
2022-10-02T01:33:16.576Z,0.97
2022-10-02T01:35:43.893Z,0.93
2022-10-02T01:38:12.533Z,1.23
2022-10-02T01:40:40.705Z,1.10
2022-10-02T01:43:10.353Z,1.30
2022-10-02T01:45:43.723Z,1.13
2022-10-02T01:48:14.380Z,1.30
2022-10-02T01:50:57.648Z,1.07
2022-10-02T01:53:29.911Z,1.07
2022-10-02T01:56:05.599Z,0.87
2022-10-02T01:58:51.401Z,1.30
2022-10-02T02:01:26.411Z,1.30
2022-10-02T02:03:56.542Z,1.23
2022-10-02T02:06:23.562Z,1.10
2022-10-02T02:09:01.916Z,1.30
2022-10-02T02:11:29.248Z,1.17
2022-10-02T02:14:14.297Z,1.33
2022-10-02T02:16:42.938Z,1.30
2022-10-02T02:19:45.259Z,1.30
2022-10-02T02:22:15.766Z,1.10
2022-10-02T02:24:48.197Z,1.30
2022-10-02T02:27:18.217Z,1.20
2022-10-02T02:29:46.855Z,1.17
2022-10-02T02:32:15.920Z,1.07
2022-10-02T02:34:48.727Z,1.17
2022-10-02T02:37:19.131Z,1.33
2022-10-02T02:39:46.272Z,1.27
2022-10-02T02:42:17.793Z,1.30
2022-10-02T02:44:49.626Z,1.17
2022-10-02T02:47:16.643Z,1.23
2022-10-02T02:49:58.992Z,1.23
2022-10-02T02:52:34.560Z,1.40
2022-10-02T02:55:06.915Z,1.10
2022-10-02T02:57:38.803Z,1.20
2022-10-02T03:00:07.675Z,1.40
2022-10-02T03:02:34.754Z,1.40
2022-10-02T03:05:01.820Z,1.57
2022-10-02T03:07:29.014Z,1.17
2022-10-02T03:10:09.387Z,1.40
2022-10-02T03:12:45.585Z,1.10
2022-10-02T03:15:27.391Z,1.10
2022-10-02T03:18:01.865Z,1.40
2022-10-02T03:20:41.669Z,1.30
2022-10-02T03:23:28.018Z,1.53
2022-10-02T03:26:00.921Z,1.30
2022-10-02T03:28:54.809Z,1.30
2022-10-02T03:31:23.484Z,1.33
2022-10-02T03:33:52.067Z,1.47
2022-10-02T03:36:20.656Z,1.23
2022-10-02T03:39:00.726Z,1.20
2022-10-02T03:41:36.173Z,1.20
2022-10-02T03:44:03.219Z,0.83
2022-10-02T03:46:30.754Z,1.13
2022-10-02T03:48:57.920Z,1.37
2022-10-02T03:51:24.964Z,1.07
2022-10-02T03:53:52.884Z,1.20
2022-10-02T03:56:58.341Z,1.30
2022-10-02T03:59:31.192Z,1.20
2022-10-02T04:02:00.335Z,1.70
2022-10-02T04:04:32.294Z,1.37
2022-10-02T04:07:07.334Z,0.97
2022-10-02T04:09:40.307Z,1.20
2022-10-02T04:12:12.810Z,1.10
2022-10-02T04:14:44.163Z,1.60
2022-10-02T04:17:16.350Z,1.30
2022-10-02T04:19:49.835Z,1.30
2022-10-02T04:22:31.784Z,0.90
2022-10-02T04:25:03.846Z,1.33
2022-10-02T04:27:45.559Z,1.13
2022-10-02T04:30:14.966Z,1.20
2022-10-02T04:32:42.003Z,1.10
2022-10-02T04:35:16.581Z,1.40
2022-10-02T04:37:52.565Z,1.20
2022-10-02T04:40:38.287Z,1.20
2022-10-02T04:43:05.304Z,1.13
2022-10-02T04:45:35.226Z,1.07
2022-10-02T04:48:14.742Z,1.10
2022-10-02T04:50:42.849Z,1.03
2022-10-02T04:53:12.424Z,1.30
2022-10-02T04:55:58.385Z,1.43
2022-10-02T04:58:31.546Z,1.10
2022-10-02T05:00:58.598Z,1.10
2022-10-02T05:03:35.938Z,1.00
2022-10-02T05:06:18.104Z,1.40
2022-10-02T05:08:57.411Z,1.00
2022-10-02T05:11:44.705Z,1.30
2022-10-02T05:14:30.591Z,1.20
2022-10-02T05:17:00.612Z,1.07
2022-10-02T05:19:33.546Z,1.03
2022-10-02T05:22:22.707Z,1.10
2022-10-02T05:24:55.850Z,1.20
2022-10-02T05:27:31.902Z,1.30
2022-10-02T05:30:09.783Z,1.17
2022-10-02T05:32:46.039Z,1.17
2022-10-02T05:35:15.810Z,1.40
2022-10-02T05:38:01.360Z,1.20
2022-10-02T05:40:33.902Z,1.33
2022-10-02T05:43:10.701Z,1.60
2022-10-02T05:45:45.160Z,1.50
2022-10-02T05:48:17.722Z,1.03
2022-10-02T05:50:46.946Z,1.30
2022-10-02T05:53:19.699Z,1.40
2022-10-02T05:55:53.658Z,1.40
2022-10-02T05:58:24.450Z,1.37
2022-10-02T06:00:52.094Z,1.43
2022-10-02T06:03:22.151Z,1.67
2022-10-02T06:05:55.270Z,1.10
2022-10-02T06:08:41.429Z,1.63
2022-10-02T06:11:12.146Z,1.20
2022-10-02T06:13:59.420Z,1.30
2022-10-02T06:16:39.018Z,1.30
2022-10-02T06:19:27.986Z,1.33
2022-10-02T06:22:02.095Z,1.43
2022-10-02T06:24:36.968Z,1.37
2022-10-02T06:27:13.245Z,1.50
2022-10-02T06:29:43.151Z,1.53
2022-10-02T06:32:22.975Z,1.60
2022-10-02T06:34:50.811Z,1.50
2022-10-02T06:37:27.994Z,1.63
2022-10-02T06:40:13.762Z,1.60
2022-10-02T06:42:58.498Z,1.70
2022-10-02T06:45:25.574Z,1.50
2022-10-02T06:47:58.635Z,1.63
2022-10-02T06:50:27.486Z,1.63
2022-10-02T06:52:54.482Z,1.70
2022-10-02T06:55:24.537Z,1.37
2022-10-02T06:57:54.289Z,1.70
2022-10-02T07:00:22.344Z,1.40
2022-10-02T07:02:49.406Z,1.50
2022-10-02T07:05:22.502Z,1.70
2022-10-02T07:08:03.901Z,1.43
2022-10-02T07:10:31.357Z,1.40
2022-10-02T07:12:58.375Z,1.47
2022-10-02T07:15:39.841Z,1.40
2022-10-02T07:18:10.036Z,1.80
2022-10-02T07:20:50.439Z,1.80
2022-10-02T07:23:32.733Z,1.80
2022-10-02T07:25:59.742Z,1.47
2022-10-02T07:28:32.893Z,1.90
2022-10-02T07:31:08.855Z,1.50
2022-10-02T07:33:38.652Z,1.80
2022-10-02T07:36:05.708Z,1.57
2022-10-02T07:38:44.689Z,1.70
2022-10-02T07:41:20.331Z,1.80
2022-10-02T07:43:50.397Z,1.50
2022-10-02T07:46:20.572Z,1.53
2022-10-02T07:49:01.245Z,2.00
2022-10-02T07:51:47.817Z,1.97
2022-10-02T07:54:53.442Z,2.00
2022-10-02T07:57:26.991Z,1.73
2022-10-02T07:59:57.560Z,2.10
2022-10-02T08:02:36.581Z,1.90
2022-10-02T08:05:05.754Z,1.60
2022-10-02T08:07:33.289Z,1.80
2022-10-02T08:10:03.615Z,1.67
2022-10-02T08:12:38.431Z,1.70
2022-10-02T08:15:06.538Z,1.80
2022-10-02T08:17:33.583Z,1.57
2022-10-02T08:20:07.667Z,1.80
2022-10-02T08:22:38.136Z,1.60
2022-10-02T08:25:08.697Z,1.67
2022-10-02T08:27:49.008Z,1.90
2022-10-02T08:30:16.581Z,1.70
2022-10-02T08:32:43.945Z,1.73
2022-10-02T08:35:18.405Z,1.80
2022-10-02T08:37:49.251Z,1.40
2022-10-02T08:40:29.006Z,1.40
2022-10-02T08:43:08.308Z,1.63
2022-10-02T08:45:35.387Z,1.60
2022-10-02T08:48:08.476Z,1.90
2022-10-02T08:50:35.484Z,1.70
2022-10-02T08:53:02.499Z,1.60
2022-10-02T08:55:39.384Z,1.80
2022-10-02T08:58:10.983Z,1.50
2022-10-02T09:01:01.943Z,1.70
2022-10-02T09:03:44.825Z,1.47
2022-10-02T09:06:21.323Z,1.60
2022-10-02T09:09:07.267Z,1.53
2022-10-02T09:11:36.396Z,1.50
2022-10-02T09:14:10.407Z,1.77
2022-10-02T09:16:41.076Z,1.80
2022-10-02T09:19:26.639Z,1.50
2022-10-02T09:22:08.761Z,1.67
2022-10-02T09:24:46.571Z,1.67
2022-10-02T09:27:31.957Z,1.30
2022-10-02T09:30:14.181Z,1.30
2022-10-02T09:32:59.267Z,1.23
2022-10-02T09:35:32.130Z,1.40
2022-10-02T09:37:59.493Z,1.20
2022-10-02T09:40:38.228Z,1.63
2022-10-02T09:43:17.458Z,1.50
2022-10-02T09:46:13.866Z,1.40
2022-10-02T09:48:59.883Z,1.30
2022-10-02T09:51:45.846Z,1.43
2022-10-02T09:54:21.677Z,1.50
2022-10-02T09:56:51.708Z,1.00
2022-10-02T09:59:19.122Z,1.40
2022-10-02T10:01:46.272Z,1.30
2022-10-02T10:04:47.914Z,1.20
2022-10-02T10:07:33.931Z,1.30
2022-10-02T10:10:12.975Z,1.13
2022-10-02T10:12:49.399Z,1.20
2022-10-02T10:15:40.691Z,1.30
2022-10-02T10:18:17.092Z,1.67
2022-10-02T10:21:05.068Z,1.50
2022-10-02T10:23:55.235Z,1.40
2022-10-02T10:26:43.096Z,1.70
2022-10-02T10:29:12.880Z,1.70
2022-10-02T10:31:45.860Z,1.53
2022-10-02T10:34:12.930Z,1.37
2022-10-02T10:37:07.612Z,1.37
2022-10-02T10:39:53.208Z,1.60
2022-10-02T10:42:24.201Z,1.53
2022-10-02T10:45:15.211Z,1.70
2022-10-02T10:47:49.922Z,1.40
2022-10-02T10:50:19.772Z,1.60
2022-10-02T10:52:46.767Z,1.90
2022-10-02T10:55:20.076Z,1.30
2022-10-02T10:57:47.877Z,1.47
2022-10-02T11:00:26.331Z,1.63
2022-10-02T11:03:04.548Z,1.43
2022-10-02T11:05:51.424Z,1.13
2022-10-02T11:08:24.576Z,1.30
2022-10-02T11:11:07.851Z,1.37
2022-10-02T11:13:37.721Z,1.40
2022-10-02T11:16:29.031Z,1.37
2022-10-02T11:19:05.321Z,1.07
2022-10-02T11:21:41.538Z,1.20
2022-10-02T11:24:27.310Z,1.50
2022-10-02T11:27:17.691Z,1.30
2022-10-02T11:29:44.788Z,1.33
2022-10-02T11:32:14.659Z,1.40
2022-10-02T11:34:50.589Z,1.30
2022-10-02T11:37:39.650Z,1.37
2022-10-02T11:40:15.024Z,1.17
2022-10-02T11:42:44.889Z,1.20
2022-10-02T11:45:33.111Z,1.00
2022-10-02T11:48:18.614Z,0.90
2022-10-02T11:51:10.270Z,1.00
2022-10-02T11:53:57.574Z,1.17
2022-10-02T11:56:24.594Z,1.10
2022-10-02T11:58:54.702Z,0.80
2022-10-02T12:01:45.209Z,0.87
2022-10-02T12:04:21.162Z,0.90
2022-10-02T12:07:00.916Z,1.00
2022-10-02T12:09:33.706Z,1.00
2022-10-02T12:12:27.877Z,0.70
2022-10-02T12:15:07.145Z,0.90
2022-10-02T12:17:46.407Z,0.70
2022-10-02T12:20:37.396Z,0.80
2022-10-02T12:23:35.170Z,0.83
2022-10-02T12:26:21.166Z,0.80
2022-10-02T12:29:03.242Z,1.10
2022-10-02T12:31:38.508Z,0.70
2022-10-02T12:34:05.711Z,0.83
2022-10-02T12:36:34.708Z,0.90
2022-10-02T12:39:11.259Z,0.90
2022-10-02T12:41:41.378Z,0.80
2022-10-02T12:44:11.304Z,0.90
2022-10-02T12:46:57.383Z,0.90
2022-10-02T12:49:25.270Z,0.67
2022-10-02T12:52:13.125Z,0.80
2022-10-02T12:54:59.568Z,0.93
2022-10-02T12:57:58.731Z,0.80
2022-10-02T13:00:25.811Z,1.30
2022-10-02T13:03:11.052Z,1.00
2022-10-02T13:05:56.691Z,1.07
2022-10-02T13:08:23.692Z,1.10
2022-10-02T13:11:00.633Z,1.03
2022-10-02T13:13:31.614Z,1.40
2022-10-02T13:16:07.615Z,1.20
2022-10-02T13:18:43.407Z,1.30
2022-10-02T13:21:11.777Z,1.33
2022-10-02T13:23:57.936Z,1.30
2022-10-02T13:26:27.852Z,1.17
2022-10-02T13:29:03.925Z,1.17
2022-10-02T13:31:49.016Z,1.20
2022-10-02T13:34:16.069Z,1.00
2022-10-02T13:36:46.198Z,1.10
2022-10-02T13:39:13.189Z,1.30
2022-10-02T13:42:00.266Z,1.10
2022-10-02T13:44:30.032Z,1.20
2022-10-02T13:46:59.883Z,1.07
2022-10-02T13:49:37.977Z,1.23
2022-10-02T13:52:05.350Z,1.90
2022-10-02T13:54:50.903Z,1.30
2022-10-02T13:57:24.109Z,1.20
2022-10-02T13:59:58.073Z,1.17
2022-10-02T14:02:40.771Z,1.50
2022-10-02T14:05:31.172Z,1.30
2022-10-02T14:08:05.303Z,1.53
2022-10-02T14:10:38.172Z,1.60
2022-10-02T14:13:05.798Z,1.27
2022-10-02T14:15:44.593Z,1.60
2022-10-02T14:18:13.014Z,1.60
2022-10-02T14:21:02.034Z,1.50
2022-10-02T14:23:39.936Z,1.50
2022-10-02T14:26:12.711Z,1.37
2022-10-02T14:28:39.769Z,1.40
2022-10-02T14:31:25.600Z,2.43
2022-10-02T14:34:11.646Z,2.00
2022-10-02T14:36:50.967Z,1.80
2022-10-02T14:39:28.467Z,1.27
2022-10-02T14:41:58.753Z,0.97
2022-10-02T14:44:45.310Z,1.20
2022-10-02T14:47:24.301Z,1.10
2022-10-02T14:49:54.035Z,1.00
2022-10-02T14:52:33.211Z,0.80
2022-10-02T14:55:17.139Z,1.10
2022-10-02T14:58:01.046Z,1.20
2022-10-02T15:00:34.259Z,1.20
2022-10-02T15:03:04.459Z,1.20
2022-10-02T15:05:50.107Z,1.10
2022-10-02T15:08:43.472Z,1.30
2022-10-02T15:11:20.070Z,1.30
2022-10-02T15:13:49.552Z,1.53
2022-10-02T15:16:39.071Z,1.80
2022-10-02T15:19:12.055Z,2.00
2022-10-02T15:21:52.084Z,1.80
2022-10-02T15:24:31.380Z,1.90
2022-10-02T15:27:08.022Z,1.83
2022-10-02T15:29:53.363Z,1.53
2022-10-02T15:32:20.366Z,1.80
2022-10-02T15:34:52.025Z,1.70
2022-10-02T15:37:28.586Z,1.70
2022-10-02T15:40:14.625Z,1.80
2022-10-02T15:42:57.405Z,1.60
2022-10-02T15:45:37.289Z,1.80
2022-10-02T15:48:23.069Z,1.60
2022-10-02T15:50:50.081Z,1.80
2022-10-02T15:53:22.895Z,2.07
2022-10-02T15:55:52.543Z,1.97
2022-10-02T15:58:28.983Z,1.60
2022-10-02T16:01:02.292Z,1.80
2022-10-02T16:03:43.456Z,1.70
2022-10-02T16:06:21.745Z,1.90
2022-10-02T16:09:01.253Z,2.20
2022-10-02T16:11:43.572Z,1.90
2022-10-02T16:14:15.293Z,2.00
2022-10-02T16:16:42.776Z,2.03
2022-10-02T16:19:12.978Z,1.70
2022-10-02T16:21:45.836Z,1.93
2022-10-02T16:24:19.508Z,2.40
2022-10-02T16:26:46.499Z,1.80
2022-10-02T16:29:32.448Z,1.90
2022-10-02T16:32:02.295Z,2.13
2022-10-02T16:34:29.290Z,1.87
2022-10-02T16:37:15.837Z,1.83
2022-10-02T16:39:48.739Z,2.17
2022-10-02T16:42:21.602Z,2.10
2022-10-02T16:44:48.828Z,2.10
2022-10-02T16:47:15.823Z,2.10
2022-10-02T16:49:52.695Z,2.27
2022-10-02T16:52:25.417Z,2.00
2022-10-02T16:54:52.806Z,2.53
2022-10-02T16:57:29.264Z,2.10
2022-10-02T17:00:08.951Z,2.30
2022-10-02T17:02:43.510Z,2.47
2022-10-02T17:05:25.689Z,2.30
2022-10-02T17:07:59.787Z,2.77
2022-10-02T17:10:29.568Z,2.50
2022-10-02T17:13:07.207Z,2.30
2022-10-02T17:15:40.175Z,2.03
2022-10-02T17:18:23.387Z,2.60
2022-10-02T17:21:12.087Z,2.47
2022-10-02T17:23:59.355Z,3.17
2022-10-02T17:26:44.137Z,4.60
2022-10-02T17:29:14.244Z,5.13
2022-10-02T17:31:47.525Z,3.50
2022-10-02T17:34:22.309Z,3.40
2022-10-02T17:37:04.347Z,2.70
2022-10-02T17:39:50.235Z,2.40
2022-10-02T17:42:17.623Z,2.20
2022-10-02T17:44:56.826Z,2.60
2022-10-02T17:47:29.142Z,2.70
2022-10-02T17:50:10.742Z,2.80
2022-10-02T17:53:11.840Z,3.03
2022-10-02T17:56:04.800Z,12.57
2022-10-02T17:58:31.866Z,5.23
2022-10-02T18:01:06.098Z,4.83
2022-10-02T18:03:39.742Z,5.13
2022-10-02T18:06:12.602Z,3.30
2022-10-02T18:08:57.769Z,2.97
2022-10-02T18:11:30.682Z,3.00
2022-10-02T18:14:16.987Z,3.13
2022-10-02T18:16:48.078Z,2.90
2022-10-02T18:19:24.230Z,2.90
2022-10-02T18:21:54.597Z,2.70
2022-10-02T18:24:39.729Z,2.90
2022-10-02T18:27:26.552Z,2.77
2022-10-02T18:30:08.966Z,2.67
2022-10-02T18:32:44.457Z,2.67
2022-10-02T18:35:32.119Z,2.67
2022-10-02T18:38:22.958Z,3.97
2022-10-02T18:41:09.682Z,2.87
2022-10-02T18:43:45.940Z,2.70
2022-10-02T18:46:32.148Z,3.10
2022-10-02T18:49:17.985Z,3.20
2022-10-02T18:52:03.379Z,3.33
2022-10-02T18:54:42.425Z,3.40
2022-10-02T18:57:09.442Z,4.37
2022-10-02T18:59:45.988Z,4.53
2022-10-02T19:02:28.407Z,3.63
2022-10-02T19:05:14.110Z,3.80
2022-10-02T19:07:54.712Z,3.40
2022-10-02T19:10:29.641Z,3.27
2022-10-02T19:13:00.416Z,3.30
2022-10-02T19:15:29.930Z,3.00
2022-10-02T19:17:57.944Z,3.20
2022-10-02T19:20:37.221Z,2.70
2022-10-02T19:23:06.777Z,3.20
2022-10-02T19:25:34.116Z,2.60
2022-10-02T19:28:02.418Z,2.70
2022-10-02T19:30:31.471Z,2.40
2022-10-02T19:33:01.899Z,2.17
2022-10-02T19:35:32.287Z,2.50
2022-10-02T19:38:08.165Z,2.20
2022-10-02T19:40:36.311Z,2.17
2022-10-02T19:43:07.761Z,2.47
2022-10-02T19:45:36.736Z,1.93
2022-10-02T19:48:05.515Z,2.00
2022-10-02T19:50:53.222Z,1.87
2022-10-02T19:53:23.906Z,1.90
2022-10-02T19:55:54.564Z,1.57
2022-10-02T19:58:22.816Z,1.70
2022-10-02T20:00:51.421Z,1.77
2022-10-02T20:03:20.944Z,1.40
2022-10-02T20:05:52.480Z,1.47
2022-10-02T20:08:35.933Z,1.47
2022-10-02T20:11:07.365Z,1.80
2022-10-02T20:13:37.878Z,1.30
2022-10-02T20:16:33.017Z,1.77
2022-10-02T20:19:00.698Z,1.40
2022-10-02T20:21:34.681Z,1.50
2022-10-02T20:24:04.294Z,1.50
2022-10-02T20:26:33.891Z,1.30
2022-10-02T20:29:03.524Z,1.50
2022-10-02T20:31:36.313Z,1.40
2022-10-02T20:34:06.261Z,1.90
2022-10-02T20:36:37.441Z,1.80
2022-10-02T20:39:10.854Z,1.67
2022-10-02T20:41:42.133Z,1.50
2022-10-02T20:44:09.247Z,1.30
2022-10-02T20:46:45.234Z,1.50
2022-10-02T20:49:21.237Z,1.30
2022-10-02T20:52:01.800Z,1.80
2022-10-02T20:54:54.074Z,1.70
2022-10-02T20:57:21.233Z,1.30
2022-10-02T21:00:07.217Z,1.80
2022-10-02T21:02:37.405Z,1.40
2022-10-02T21:05:04.446Z,1.53
2022-10-02T21:07:50.284Z,1.50
2022-10-02T21:10:25.383Z,1.50
2022-10-02T21:12:52.380Z,1.43
2022-10-02T21:15:19.409Z,1.67
2022-10-02T21:17:46.403Z,1.47
2022-10-02T21:20:50.159Z,1.40
2022-10-02T21:23:36.704Z,1.40
2022-10-02T21:26:27.033Z,1.63
2022-10-02T21:28:56.850Z,1.40
2022-10-02T21:31:37.031Z,1.80
2022-10-02T21:34:30.991Z,1.60
2022-10-02T21:37:16.976Z,1.53
2022-10-02T21:40:02.745Z,1.30
2022-10-02T21:42:48.749Z,1.50
2022-10-02T21:45:34.784Z,1.37
2022-10-02T21:48:13.569Z,1.40
2022-10-02T21:51:13.493Z,1.43
2022-10-02T21:53:58.778Z,1.57
2022-10-02T21:56:28.677Z,1.63
2022-10-02T21:59:10.823Z,1.83
2022-10-02T22:02:08.783Z,1.30
2022-10-02T22:04:56.719Z,1.37
2022-10-02T22:07:36.139Z,1.30
2022-10-02T22:10:06.264Z,1.17
2022-10-02T22:12:38.347Z,1.50
2022-10-02T22:15:05.388Z,1.40
2022-10-02T22:17:44.696Z,1.27
2022-10-02T22:20:14.942Z,1.70
2022-10-02T22:22:47.887Z,1.50
2022-10-02T22:25:33.398Z,1.70
2022-10-02T22:28:15.777Z,1.63
2022-10-02T22:30:47.880Z,1.90
2022-10-02T22:33:26.050Z,1.67
2022-10-02T22:35:59.079Z,1.67
2022-10-02T22:38:26.100Z,1.60
2022-10-02T22:40:56.740Z,1.40
2022-10-02T22:43:27.595Z,1.80
2022-10-02T22:46:00.899Z,1.50
2022-10-02T22:48:36.574Z,1.50
2022-10-02T22:51:07.831Z,1.40
2022-10-02T22:53:52.312Z,1.50
2022-10-02T22:56:26.528Z,1.37
2022-10-02T22:59:13.791Z,1.50
2022-10-02T23:01:52.767Z,1.50
2022-10-02T23:04:37.883Z,1.53
2022-10-02T23:07:08.509Z,1.30
2022-10-02T23:09:57.558Z,1.40
2022-10-02T23:12:39.108Z,1.40
2022-10-02T23:15:18.041Z,1.40
2022-10-02T23:17:49.941Z,1.40
2022-10-02T23:20:37.867Z,1.53
2022-10-02T23:23:14.381Z,1.40
2022-10-02T23:25:45.016Z,1.50
2022-10-02T23:28:15.516Z,1.27
2022-10-02T23:30:48.745Z,1.60
2022-10-02T23:33:18.994Z,1.43
2022-10-02T23:35:45.991Z,1.53
2022-10-02T23:38:19.539Z,1.07
2022-10-02T23:41:23.633Z,1.40
2022-10-02T23:44:09.835Z,1.20
2022-10-02T23:46:53.987Z,1.33
2022-10-02T23:49:26.020Z,1.10
2022-10-02T23:51:58.837Z,1.33
2022-10-02T23:54:28.782Z,1.37
2022-10-02T23:57:04.767Z,1.17
2022-10-02T23:59:43.803Z,1.37
